Irene, South Dakota
Current Conditions -  °F | °C
As of 6:56 AM on Wednesday 26 Nov 2014 (Local Time) from KFSD Reporting Station
Overcast Overcast  
Wind Chill: 12°   Ceiling: 1300
Heat Index: 26°   Visibility: 10mi
Dew Point: 22°   Wind: 22mph
Humidity: 84%   Direction: 20°NNE
Pressure: 30.01"   Gusts: 30mph
Location:  43.08°N, 97.16°W
Report Text: KFSD 261256Z 02019G26KT 10SM BKN013 OVC018 M03/M06 A3001 RMK AO2 PK WND 02027/1237 SNE05 SLP179 DRSN P0000 T10331056
Loading
Personal Weather Stations






























Interactive Weather Map New forecast layout! Learn more

10-Day Weather Forecast

Advertisements
Track Severe Weather on mobile